Time;durP1;ratioP1;P1;durP2;ratioP2;P2;SDS_P1;SDS_P2;PMS_P1;PMS_P2;Temp;Humidity;BMP_temperature;BMP_pressure;BME280_temperature;BME280_humidity;BME280_pressure;Samples;Min_cycle;Max_cycle;Signal;HPM_P1;HPM_P2
2022/03/20 00:01:26;;;;;;;6.60;2.30;;;;;;;9.58;33.70;102154.22;5073787;28;20058;-54
2022/03/20 00:03:53;;;;;;;6.32;2.58;;;;;;;9.64;33.77;102155.88;5070765;28;20516;-55
2022/03/20 00:06:21;;;;;;;8.02;2.83;;;;;;;9.60;33.32;102156.69;5070568;28;20048;-53
2022/03/20 00:08:51;;;;;;;6.65;2.30;;;;;;;9.35;33.83;102148.38;5047797;28;20052;-55
2022/03/20 00:11:19;;;;;;;7.45;2.42;;;;;;;9.52;33.41;102149.78;5071772;28;20060;-53
2022/03/20 00:13:46;;;;;;;8.10;2.67;;;;;;;9.57;33.72;102151.75;5073023;28;20060;-57
2022/03/20 00:16:14;;;;;;;9.52;2.55;;;;;;;9.49;33.30;102147.59;5081305;28;20048;-55
2022/03/20 00:18:41;;;;;;;6.53;2.47;;;;;;;9.59;33.09;102144.84;5074885;28;20052;-54
2022/03/20 00:21:10;;;;;;;6.85;2.40;;;;;;;9.50;33.37;102145.69;5074963;28;20511;-56
2022/03/20 00:23:37;;;;;;;6.40;2.20;;;;;;;9.32;33.57;102148.91;5068665;28;20041;-54
2022/03/20 00:26:05;;;;;;;6.30;2.33;;;;;;;9.32;33.49;102147.00;5067440;28;20048;-55
2022/03/20 00:28:33;;;;;;;6.75;2.42;;;;;;;9.21;33.82;102139.81;5073583;28;20052;-53
2022/03/20 00:31:00;;;;;;;5.85;2.13;;;;;;;9.37;33.79;102143.44;5074395;28;20048;-55
2022/03/20 00:33:28;;;;;;;8.73;2.55;;;;;;;9.38;33.74;102148.66;5074770;28;20052;-54
2022/03/20 00:35:55;;;;;;;7.07;1.90;;;;;;;9.36;33.56;102150.88;5073619;28;20059;-56
2022/03/20 00:38:24;;;;;;;6.65;1.80;;;;;;;9.12;33.44;102148.84;5074736;28;20396;-54
2022/03/20 00:40:51;;;;;;;8.07;1.95;;;;;;;8.89;34.19;102144.63;5068114;28;20130;-54
2022/03/20 00:43:19;;;;;;;7.75;2.20;;;;;;;9.01;34.42;102143.28;5064565;28;20060;-57
2022/03/20 00:45:46;;;;;;;8.38;1.95;;;;;;;8.97;34.18;102144.09;5074630;28;20048;-54
2022/03/20 00:48:14;;;;;;;7.95;2.05;;;;;;;8.96;34.08;102140.53;5074479;28;20060;-54
2022/03/20 00:50:42;;;;;;;7.40;2.08;;;;;;;9.13;34.16;102139.50;5056980;28;20526;-52
2022/03/20 00:53:09;;;;;;;7.43;2.10;;;;;;;9.02;34.12;102144.97;5074800;28;20056;-52
2022/03/20 00:55:37;;;;;;;5.70;1.58;;;;;;;8.96;34.19;102135.03;5090199;28;20049;-56
2022/03/20 00:58:04;;;;;;;5.13;1.95;;;;;;;9.01;34.20;102140.53;5074194;28;20056;-51
2022/03/20 01:00:32;;;;;;;6.20;2.35;;;;;;;8.77;34.60;102136.59;5074582;28;20044;-52
2022/03/20 01:03:00;;;;;;;6.45;2.38;;;;;;;8.72;34.56;102136.56;5073176;28;20083;-52
2022/03/20 01:05:28;;;;;;;10.10;1.73;;;;;;;8.76;34.70;102143.19;5085639;28;20048;-53
2022/03/20 01:07:55;;;;;;;5.13;1.88;;;;;;;8.85;34.78;102130.59;5075079;28;20044;-51
2022/03/20 01:10:23;;;;;;;6.93;2.00;;;;;;;8.95;34.80;102124.31;5075303;28;20044;-54
2022/03/20 01:12:50;;;;;;;8.00;2.20;;;;;;;8.86;34.74;102126.75;5075213;28;20063;-56
2022/03/20 01:15:18;;;;;;;9.07;2.45;;;;;;;8.75;34.80;102122.28;5067561;28;20049;-50
2022/03/20 01:17:49;;;;;;;6.80;2.15;;;;;;;8.78;35.12;102127.28;5074804;28;20060;-56
2022/03/20 01:20:17;;;;;;;8.52;2.03;;;;;;;8.77;35.02;102122.06;5075553;28;20056;-56
2022/03/20 01:22:45;;;;;;;4.63;1.80;;;;;;;8.65;35.21;102114.00;5074981;28;20059;-54
2022/03/20 01:25:18;;;;;;;8.90;2.00;;;;;;;8.74;35.22;102115.16;5077569;28;20379;-55
2022/03/20 01:27:46;;;;;;;6.53;1.88;;;;;;;8.57;35.51;102120.00;5077478;28;20048;-53
2022/03/20 01:30:13;;;;;;;10.98;2.20;;;;;;;8.54;35.45;102115.03;5077113;28;20044;-54
2022/03/20 01:32:40;;;;;;;6.80;1.80;;;;;;;8.43;35.50;102107.84;5078021;28;20055;-54
2022/03/20 01:35:10;;;;;;;9.18;2.10;;;;;;;8.66;35.31;102112.94;5078638;28;20056;-54
2022/03/20 01:37:40;;;;;;;7.80;2.10;;;;;;;8.64;35.59;102106.03;5078376;28;20059;-53
2022/03/20 01:40:08;;;;;;;7.90;2.75;;;;;;;8.76;35.42;102109.38;5078321;28;20419;-54
2022/03/20 01:42:38;;;;;;;8.02;2.20;;;;;;;8.69;35.57;102103.31;5078576;28;20064;-50
2022/03/20 01:45:20;;;;;;;7.72;2.30;;;;;;;8.69;35.66;102108.81;5078517;28;20048;-53
2022/03/20 01:47:49;;;;;;;8.10;2.40;;;;;;;8.74;35.85;102108.81;5078250;28;20229;-53
2022/03/20 01:50:22;;;;;;;7.97;2.27;;;;;;;8.56;36.53;102101.06;5077890;28;20045;-52
2022/03/20 01:52:51;;;;;;;7.60;2.00;;;;;;;8.31;36.54;102098.16;5065772;28;20310;-55
2022/03/20 01:55:20;;;;;;;6.75;2.25;;;;;;;8.55;36.52;102099.38;5077950;28;20051;-55
2022/03/20 01:57:47;;;;;;;9.15;2.90;;;;;;;8.60;36.92;102092.00;5078306;28;20057;-55
2022/03/20 02:00:18;;;;;;;6.40;2.05;;;;;;;8.78;36.66;102094.31;5077580;28;20389;-53
2022/03/20 02:02:45;;;;;;;7.72;1.95;;;;;;;8.51;37.24;102099.09;5078301;28;20041;-52
2022/03/20 02:05:13;;;;;;;5.90;2.53;;;;;;;8.15;37.70;102090.88;5077403;28;20048;-54
2022/03/20 02:07:41;;;;;;;8.52;2.10;;;;;;;8.27;37.75;102091.53;5083440;28;20072;-58
2022/03/20 02:10:08;;;;;;;6.80;2.10;;;;;;;8.25;37.88;102097.28;5074504;28;20036;-57
2022/03/20 02:12:37;;;;;;;8.43;2.30;;;;;;;8.26;38.13;102092.63;5076538;28;20049;-57
2022/03/20 02:15:06;;;;;;;7.18;1.95;;;;;;;8.26;38.38;102090.72;5077588;28;20056;-55
2022/03/20 02:17:34;;;;;;;7.13;2.03;;;;;;;7.78;39.05;102067.00;5077538;28;20060;-53
2022/03/20 02:20:04;;;;;;;6.05;2.22;;;;;;;7.72;39.40;102061.75;5077504;28;20048;-58
2022/03/20 02:22:32;;;;;;;7.03;2.17;;;;;;;7.67;39.59;102058.97;5072508;28;20053;-55
2022/03/20 02:25:05;;;;;;;6.47;2.35;;;;;;;7.44;40.02;102068.34;5076913;28;20071;-55
2022/03/20 02:27:34;;;;;;;7.90;2.17;;;;;;;7.41;40.41;102063.38;5080134;28;20511;-58
2022/03/20 02:30:06;;;;;;;9.85;2.53;;;;;;;7.52;40.16;102061.56;5076980;28;20048;-57
2022/03/20 02:32:39;;;;;;;6.40;2.10;;;;;;;7.76;39.96;102051.88;5077598;28;20056;-55
2022/03/20 02:35:11;;;;;;;8.87;2.20;;;;;;;7.61;39.61;102051.78;5058144;28;20060;-57
2022/03/20 02:37:40;;;;;;;9.40;2.30;;;;;;;7.66;40.18;102046.31;5077410;28;20290;-58
2022/03/20 02:40:08;;;;;;;11.75;1.85;;;;;;;7.50;40.29;102041.78;5075815;28;20043;-54
2022/03/20 02:42:37;;;;;;;9.30;2.27;;;;;;;7.63;40.49;102038.63;5064469;28;20080;-58
2022/03/20 02:45:06;;;;;;;5.35;1.83;;;;;;;7.61;40.00;102041.63;5077267;28;20052;-56
2022/03/20 02:47:44;;;;;;;5.32;2.10;;;;;;;7.89;39.54;102037.72;5076953;28;20560;-56
2022/03/20 02:50:17;;;;;;;9.00;2.67;;;;;;;7.63;40.63;102039.47;5077107;28;20052;-56
2022/03/20 02:52:46;;;;;;;11.90;2.28;;;;;;;7.51;40.92;102043.47;5077247;28;20052;-57
2022/03/20 02:55:16;;;;;;;13.38;2.95;;;;;;;7.40;41.51;102045.28;5077237;28;20067;-57
2022/03/20 02:57:45;;;;;;;9.88;2.10;;;;;;;7.65;41.26;102040.00;5069841;28;20063;-56
2022/03/20 03:00:13;;;;;;;10.80;2.25;;;;;;;7.68;41.23;102044.16;5075406;28;20055;-56
2022/03/20 03:02:45;;;;;;;11.45;2.17;;;;;;;7.46;42.13;102043.44;5076974;28;20057;-56
2022/03/20 03:05:14;;;;;;;6.75;2.45;;;;;;;7.34;42.08;102031.81;5075206;28;20056;-58
2022/03/20 03:13:17;;;;;;;5.45;2.30;;;;;;;6.98;43.08;102022.38;5074819;28;20057;-56
2022/03/20 03:15:44;;;;;;;5.60;2.28;;;;;;;6.98;43.90;102021.56;5064787;28;20503;-55
2022/03/20 03:18:12;;;;;;;8.80;2.75;;;;;;;7.11;43.39;102026.63;5058918;28;20055;-58
2022/03/20 03:20:40;;;;;;;13.80;3.13;;;;;;;6.72;44.48;102020.44;5076538;28;20032;-57
2022/03/20 03:23:07;;;;;;;7.32;2.80;;;;;;;6.51;45.32;102021.28;5075592;28;20668;-58
2022/03/20 03:25:37;;;;;;;8.40;3.00;;;;;;;6.85;45.03;102023.63;5076264;28;20047;-58
2022/03/20 03:28:05;;;;;;;7.90;2.72;;;;;;;6.76;45.10;102018.88;5076464;28;20056;-57
2022/03/20 03:30:33;;;;;;;7.30;2.75;;;;;;;6.76;45.39;102027.09;5076257;28;20040;-58
2022/03/20 03:33:00;;;;;;;8.52;2.83;;;;;;;6.56;45.48;102027.66;5075780;28;20060;-56
2022/03/20 03:35:43;;;;;;;10.07;2.72;;;;;;;6.58;45.99;102021.94;5076163;28;20052;-56
2022/03/20 03:38:17;;;;;;;9.40;2.70;;;;;;;6.65;45.82;102033.50;5076263;28;20068;-57
2022/03/20 03:40:46;;;;;;;8.60;2.80;;;;;;;6.64;46.46;102018.97;5075940;28;20056;-57
2022/03/20 03:43:15;;;;;;;10.60;2.72;;;;;;;6.82;45.92;102015.91;5064116;28;20052;-54
2022/03/20 03:45:43;;;;;;;7.95;2.85;;;;;;;6.99;45.51;102017.75;5074291;28;20427;-56
2022/03/20 03:48:11;;;;;;;11.90;3.17;;;;;;;6.84;45.99;102021.13;5075925;28;20053;-57
2022/03/20 03:50:40;;;;;;;13.20;3.30;;;;;;;6.76;46.19;102016.94;5075170;28;20051;-58
2022/03/20 03:53:11;;;;;;;8.27;2.92;;;;;;;6.59;46.51;102015.38;5076475;28;20067;-56
2022/03/20 03:55:41;;;;;;;9.75;3.25;;;;;;;6.80;46.27;102014.50;5076042;28;20060;-54
2022/03/20 03:58:09;;;;;;;8.60;3.05;;;;;;;6.97;46.25;102019.91;5074295;28;20070;-57
2022/03/20 04:00:36;;;;;;;7.70;2.92;;;;;;;6.88;46.28;102018.72;5075494;28;20055;-57
2022/03/20 04:03:03;;;;;;;9.35;3.15;;;;;;;7.11;46.05;102023.91;5076072;28;20162;-52
2022/03/20 04:05:32;;;;;;;7.88;3.20;;;;;;;7.04;46.01;102015.06;5066041;28;20049;-51
2022/03/20 04:07:59;;;;;;;9.70;3.35;;;;;;;6.79;46.78;102018.34;5075975;28;20059;-55
2022/03/20 04:10:26;;;;;;;8.20;3.10;;;;;;;7.05;46.39;102017.53;5075713;28;20059;-51
2022/03/20 04:12:54;;;;;;;9.10;3.42;;;;;;;6.93;46.59;102018.75;5078269;28;20056;-50
2022/03/20 04:15:25;;;;;;;9.13;3.50;;;;;;;6.90;46.50;102024.75;5074065;28;20048;-56
2022/03/20 04:17:52;;;;;;;10.40;4.45;;;;;;;6.88;46.60;102019.53;5075588;28;20048;-54
2022/03/20 04:20:20;;;;;;;12.23;4.10;;;;;;;7.00;46.33;102016.66;5075479;28;20044;-55
2022/03/20 04:25:36;;;;;;;10.75;4.13;;;;;;;6.81;47.05;102011.53;5064847;28;20072;-55
2022/03/20 04:28:05;;;;;;;;;;;;;;;6.81;47.18;102011.53;5074767;28;20048;-54
2022/03/20 04:30:33;;;;;;;12.73;4.38;;;;;;;6.62;47.37;102017.59;5075162;28;19943;-54
2022/03/20 04:33:01;;;;;;;11.50;4.85;;;;;;;6.74;47.36;102015.56;5075371;28;20064;-56
2022/03/20 04:35:28;;;;;;;11.60;4.80;;;;;;;7.12;46.69;102006.34;5085560;28;20058;-53
2022/03/20 04:38:02;;;;;;;10.98;4.85;;;;;;;6.85;47.07;102000.91;5082276;28;20496;-53
2022/03/20 04:40:29;;;;;;;10.60;4.75;;;;;;;6.85;47.84;102000.91;5075302;28;20154;-54
2022/03/20 04:42:57;;;;;;;12.65;5.10;;;;;;;6.98;47.30;101999.63;5072852;28;20048;-59
2022/03/20 04:45:26;;;;;;;12.75;6.28;;;;;;;6.83;47.75;102003.88;5073701;28;20053;-53
2022/03/20 04:58:58;;;;;;;13.48;6.47;;;;;;;6.49;49.28;101998.81;5074451;28;20057;-56
2022/03/20 05:01:25;;;;;;;14.05;6.93;;;;;;;6.61;48.96;101994.03;5070087;28;20045;-53
2022/03/20 05:03:52;;;;;;;12.73;6.22;;;;;;;6.96;48.20;101985.41;5071534;28;20459;-57
2022/03/20 05:06:20;;;;;;;10.27;5.82;;;;;;;6.85;48.29;101989.94;5075318;28;20052;-55
2022/03/20 05:08:48;;;;;;;12.68;6.32;;;;;;;6.77;48.76;101996.69;5073993;28;20059;-56
2022/03/20 05:14:02;;;;;;;13.32;6.53;;;;;;;6.57;49.52;101999.19;5059094;28;20045;-53
2022/03/20 05:16:29;;;;;;;14.43;6.50;;;;;;;6.33;50.16;101994.25;5069831;28;20091;-55
2022/03/20 05:18:57;;;;;;;12.68;6.32;;;;;;;6.46;49.92;101993.84;5074956;28;20519;-53
2022/03/20 05:21:24;;;;;;;14.10;6.10;;;;;;;6.53;49.91;102000.81;5074739;28;20111;-56
2022/03/20 05:23:56;;;;;;;15.00;6.05;;;;;;;6.39;50.04;101996.78;5075186;28;20052;-52
2022/03/20 05:26:24;;;;;;;11.70;6.15;;;;;;;6.09;50.81;102004.59;5073679;28;20056;-56
2022/03/20 05:28:51;;;;;;;11.88;5.88;;;;;;;6.21;51.17;102010.78;5073522;28;20056;-54
2022/03/20 05:31:18;;;;;;;15.05;5.93;;;;;;;6.21;50.81;101997.09;5071494;28;20048;-55
2022/03/20 05:33:46;;;;;;;11.70;6.43;;;;;;;6.22;51.03;102001.50;5074696;28;20067;-56
2022/03/20 05:36:13;;;;;;;11.18;5.55;;;;;;;6.26;50.90;102012.78;5074735;28;20045;-54
2022/03/20 05:38:40;;;;;;;12.93;5.85;;;;;;;6.30;51.38;102001.06;5069387;28;20048;-54
2022/03/20 05:43:54;;;;;;;10.68;5.20;;;;;;;6.30;50.74;102003.78;5078828;28;20492;-50
2022/03/20 05:46:21;;;;;;;11.50;5.30;;;;;;;6.17;51.51;101998.66;5053577;28;20053;-55
2022/03/20 05:48:48;;;;;;;12.43;5.70;;;;;;;6.29;51.19;101984.88;5068963;28;20048;-51
2022/03/20 05:51:16;;;;;;;11.52;4.65;;;;;;;6.11;51.96;101983.28;5074611;28;20384;-54
2022/03/20 05:53:44;;;;;;;12.90;5.72;;;;;;;6.33;51.56;101981.38;5074274;28;20057;-56
2022/03/20 05:58:58;;;;;;;12.80;5.35;;;;;;;6.30;51.65;101998.31;5074452;28;20060;-54
2022/03/20 06:01:26;;;;;;;12.32;5.43;;;;;;;6.16;51.81;101988.81;5069512;28;20052;-53
2022/03/20 06:03:53;;;;;;;10.57;5.25;;;;;;;6.26;51.49;101982.66;5067909;28;20052;-55
2022/03/20 06:06:21;;;;;;;12.32;6.00;;;;;;;6.15;51.93;101984.44;5075033;28;20052;-52
2022/03/20 06:08:49;;;;;;;13.88;5.43;;;;;;;6.24;52.02;101982.91;5074734;28;20052;-55
2022/03/20 06:11:17;;;;;;;12.63;6.13;;;;;;;6.07;52.20;101998.53;5075722;28;20040;-55
2022/03/20 06:13:45;;;;;;;11.80;5.60;;;;;;;5.96;52.52;102004.13;5073039;28;20060;-55
2022/03/20 06:16:14;;;;;;;14.45;5.78;;;;;;;6.01;52.81;101999.56;5070935;28;20518;-54
2022/03/20 06:18:42;;;;;;;16.48;6.65;;;;;;;6.34;52.30;102010.41;5078029;28;20719;-56
2022/03/20 06:21:11;;;;;;;15.38;5.93;;;;;;;6.16;52.36;102009.88;5077275;28;20053;-56
2022/03/20 06:23:38;;;;;;;15.60;6.38;;;;;;;6.01;53.01;102007.78;5064516;28;20052;-54
2022/03/20 06:26:08;;;;;;;12.75;5.90;;;;;;;6.17;52.50;102014.28;5077973;28;20052;-54
2022/03/20 06:28:38;;;;;;;;;;;;;;;6.43;51.92;102005.31;5078331;28;20067;-53
2022/03/20 06:31:12;;;;;;;14.57;6.82;;;;;;;6.22;52.46;102014.34;5077796;28;19927;-56
2022/03/20 06:33:57;;;;;;;15.23;7.00;;;;;;;6.12;52.94;102017.75;5069433;28;20052;-55
2022/03/20 06:36:25;;;;;;;14.13;6.53;;;;;;;6.30;52.44;102012.00;5071052;28;20290;-59
2022/03/20 06:38:53;;;;;;;15.77;7.32;;;;;;;6.31;52.12;102008.16;5074426;28;20409;-53
2022/03/20 06:41:20;;;;;;;11.95;6.22;;;;;;;6.25;52.40;102022.03;5072168;28;20049;-56
2022/03/20 06:43:48;;;;;;;18.70;7.32;;;;;;;6.32;52.42;102022.69;5070001;28;20060;-54
2022/03/20 06:46:16;;;;;;;13.77;7.18;;;;;;;6.20;52.61;102025.53;5085397;28;20048;-54
2022/03/20 06:48:52;;;;;;;14.98;7.32;;;;;;;6.21;52.69;102038.13;5082709;28;20053;-55
2022/03/20 06:51:22;;;;;;;14.38;7.53;;;;;;;6.26;52.84;102029.19;5077440;28;20036;-55
2022/03/20 06:53:51;;;;;;;16.70;7.75;;;;;;;6.24;52.70;102042.28;5076929;28;20056;-55
2022/03/20 06:56:18;;;;;;;14.55;6.97;;;;;;;6.36;52.22;102029.31;5065025;28;20487;-58
2022/03/20 06:58:46;;;;;;;15.63;7.82;;;;;;;6.60;51.84;102025.25;5077181;28;20064;-55
2022/03/20 07:01:13;;;;;;;14.35;7.80;;;;;;;6.79;51.52;102024.66;5076762;28;20475;-53
2022/03/20 07:03:41;;;;;;;16.50;7.78;;;;;;;6.88;50.79;102032.41;5076873;28;20052;-54
2022/03/20 07:06:08;;;;;;;15.30;7.63;;;;;;;6.67;51.60;102037.66;5075192;28;20076;-54
2022/03/20 07:08:35;;;;;;;16.42;7.45;;;;;;;6.52;51.71;102034.72;5077758;28;20471;-55
2022/03/20 07:11:03;;;;;;;16.95;7.50;;;;;;;6.61;51.95;102032.34;5074617;28;20049;-54
2022/03/20 07:13:48;;;;;;;15.27;7.70;;;;;;;6.39;52.34;102057.00;5075788;28;20439;-57
2022/03/20 07:16:16;;;;;;;15.65;8.13;;;;;;;6.35;52.36;102053.09;5077180;28;20048;-54
2022/03/20 07:18:45;;;;;;;14.30;7.63;;;;;;;6.21;52.78;102059.19;5076626;28;20055;-52
2022/03/20 07:21:14;;;;;;;17.77;7.18;;;;;;;6.04;53.38;102050.19;5058100;28;20048;-52
2022/03/20 07:23:42;;;;;;;17.73;7.80;;;;;;;5.84;54.13;102049.88;5076526;28;20051;-61
2022/03/20 07:31:42;;;;;;;21.15;8.65;;;;;;;6.29;53.04;102051.41;5076318;28;20064;-52
2022/03/20 07:34:09;;;;;;;17.88;7.68;;;;;;;6.43;52.57;102040.91;5083012;28;20067;-56
2022/03/20 07:36:37;;;;;;;15.23;8.02;;;;;;;6.19;52.74;102048.50;5076474;28;20407;-56
2022/03/20 07:39:04;;;;;;;16.83;8.40;;;;;;;6.09;53.45;102053.00;5074512;28;20041;-53
2022/03/20 07:41:32;;;;;;;16.90;8.95;;;;;;;6.22;53.39;102049.91;5071373;28;20052;-53
2022/03/20 07:43:59;;;;;;;16.17;10.38;;;;;;;6.52;52.49;102051.13;5074691;28;20056;-57
2022/03/20 07:46:27;;;;;;;18.73;10.38;;;;;;;6.57;52.14;102055.88;5076069;28;20511;-56
2022/03/20 07:48:55;;;;;;;18.75;9.80;;;;;;;6.58;51.91;102055.59;5075784;28;20048;-51
2022/03/20 07:51:22;;;;;;;21.38;12.27;;;;;;;6.51;52.10;102054.97;5082611;28;20044;-53
2022/03/20 07:53:50;;;;;;;25.38;14.88;;;;;;;6.53;52.53;102058.28;5076436;28;20488;-57
2022/03/20 07:56:21;;;;;;;21.27;11.25;;;;;;;6.40;52.99;102061.38;5075874;28;20048;-56
2022/03/20 07:58:50;;;;;;;21.70;10.27;;;;;;;6.58;52.33;102055.59;5074451;28;20051;-55
2022/03/20 08:01:17;;;;;;;18.60;10.75;;;;;;;6.70;51.91;102050.00;5075932;28;20049;-56
2022/03/20 08:03:50;;;;;;;20.52;10.88;;;;;;;6.10;53.38;102058.19;5073089;28;20063;-51
2022/03/20 08:06:17;;;;;;;19.20;11.27;;;;;;;6.40;53.28;102055.06;5076035;28;20552;-57
2022/03/20 08:08:45;;;;;;;25.90;11.27;;;;;;;6.34;52.84;102059.66;5057755;28;20052;-56
2022/03/20 08:11:12;;;;;;;19.58;11.00;;;;;;;6.42;53.28;102042.81;5075640;28;20052;-51
2022/03/20 08:13:40;;;;;;;19.85;12.45;;;;;;;6.73;52.60;102044.84;5075187;28;20060;-54
2022/03/20 08:16:10;;;;;;;27.35;11.93;;;;;;;7.15;51.57;102045.03;5068372;28;20053;-54
2022/03/20 08:18:37;;;;;;;;;;;;;;;6.92;51.73;102039.88;5075667;28;20055;-55
2022/03/20 08:21:05;;;;;;;19.40;11.18;;;;;;;6.93;51.77;102041.50;5072419;28;19927;-56
2022/03/20 08:23:32;;;;;;;18.13;11.23;;;;;;;6.71;52.31;102043.44;5069802;28;20427;-54
2022/03/20 08:26:00;;;;;;;22.67;11.05;;;;;;;6.79;52.03;102045.72;5072639;28;20049;-58
2022/03/20 08:28:27;;;;;;;17.02;10.90;;;;;;;6.63;52.56;102043.88;5073982;28;20048;-56
2022/03/20 08:30:54;;;;;;;20.77;12.15;;;;;;;6.94;51.77;102042.34;5074059;28;20044;-54
2022/03/20 08:33:22;;;;;;;20.45;11.35;;;;;;;6.88;52.29;102043.34;5073923;28;20051;-56
2022/03/20 08:35:50;;;;;;;20.63;11.68;;;;;;;7.10;51.34;102041.41;5074515;28;20086;-55
2022/03/20 08:38:17;;;;;;;24.40;12.50;;;;;;;7.30;51.27;102044.38;5066012;28;20063;-56
2022/03/20 08:40:44;;;;;;;21.08;12.02;;;;;;;7.38;50.64;102041.13;5074718;28;20041;-57
2022/03/20 08:43:15;;;;;;;22.48;12.20;;;;;;;7.39;50.88;102042.81;5080331;28;20071;-56
2022/03/20 08:45:43;;;;;;;21.25;12.80;;;;;;;7.28;51.27;102046.53;5073121;28;20055;-55
2022/03/20 08:48:11;;;;;;;28.02;13.27;;;;;;;7.29;50.94;102050.91;5074832;28;20063;-54
2022/03/20 08:50:38;;;;;;;25.35;13.48;;;;;;;7.44;50.32;102042.84;5076064;28;20554;-55
2022/03/20 08:53:05;;;;;;;24.08;13.90;;;;;;;7.61;50.23;102047.13;5074258;28;20048;-54
2022/03/20 08:55:34;;;;;;;26.48;13.77;;;;;;;7.54;50.33;102054.75;5082399;28;20056;-55
2022/03/20 08:58:01;;;;;;;24.38;13.90;;;;;;;7.91;49.52;102052.81;5074710;28;20055;-52
2022/03/20 09:00:29;;;;;;;22.42;14.43;;;;;;;7.93;49.44;102053.41;5074381;28;20045;-53
2022/03/20 09:02:56;;;;;;;31.58;17.92;;;;;;;8.15;49.22;102049.69;5074372;28;20044;-53
2022/03/20 09:05:24;;;;;;;27.33;14.55;;;;;;;8.01;48.99;102060.31;5073025;28;20044;-54
2022/03/20 09:07:51;;;;;;;23.63;15.45;;;;;;;7.64;49.80;102063.03;5073822;28;20250;-57
2022/03/20 09:10:19;;;;;;;25.02;15.48;;;;;;;7.83;49.84;102069.78;5052374;28;20060;-55
2022/03/20 09:12:46;;;;;;;28.38;16.35;;;;;;;8.17;48.75;102061.25;5071444;28;20487;-52
2022/03/20 09:15:20;;;;;;;25.65;15.43;;;;;;;8.20;48.56;102072.53;5073351;28;20057;-55
2022/03/20 09:20:35;;;;;;;27.05;17.13;;;;;;;8.25;48.15;102066.25;5074587;28;20049;-54
2022/03/20 09:23:03;;;;;;;25.88;16.08;;;;;;;8.26;48.12;102066.00;5074421;28;20049;-57
2022/03/20 09:25:32;;;;;;;28.55;16.55;;;;;;;8.20;48.76;102064.28;5065227;28;20638;-54
2022/03/20 09:28:03;;;;;;;27.60;16.65;;;;;;;8.47;47.67;102072.44;5073904;28;20064;-56
2022/03/20 09:30:32;;;;;;;25.52;15.30;;;;;;;8.43;47.58;102068.56;5068147;28;20048;-57
2022/03/20 09:33:02;;;;;;;27.83;16.40;;;;;;;8.47;47.73;102076.00;5066289;28;20356;-54
2022/03/20 09:35:29;;;;;;;25.88;15.88;;;;;;;8.48;48.19;102071.34;5072787;28;20522;-55
2022/03/20 09:37:57;;;;;;;28.65;15.70;;;;;;;8.50;47.85;102059.00;5074364;28;20544;-56
2022/03/20 09:40:33;;;;;;;26.88;15.88;;;;;;;8.80;47.44;102061.88;5073444;28;20044;-55
2022/03/20 09:43:01;;;;;;;23.70;15.38;;;;;;;8.89;47.16;102062.19;5067578;28;20057;-59
2022/03/20 09:45:28;;;;;;;28.45;15.98;;;;;;;8.73;47.62;102061.31;5074388;28;20057;-58
2022/03/20 09:47:56;;;;;;;23.40;15.43;;;;;;;8.75;47.58;102061.84;5074270;28;20059;-53
2022/03/20 09:50:24;;;;;;;41.75;25.23;;;;;;;8.84;46.86;102056.66;5077232;28;20052;-50
2022/03/20 09:52:51;;;;;;;25.00;17.50;;;;;;;8.81;47.01;102054.47;5077768;28;20048;-54
2022/03/20 09:55:19;;;;;;;24.85;16.48;;;;;;;9.06;46.35;102047.16;5077880;28;20064;-53
2022/03/20 09:57:46;;;;;;;27.63;16.17;;;;;;;9.17;46.12;102052.66;5074759;28;20052;-53
2022/03/20 10:00:15;;;;;;;26.90;16.67;;;;;;;8.90;45.95;102056.44;5073725;28;20049;-55
2022/03/20 10:02:42;;;;;;;27.33;14.60;;;;;;;9.15;48.20;102052.94;5073607;28;20372;-55
2022/03/20 10:05:10;;;;;;;21.27;14.20;;;;;;;9.48;51.07;102054.34;5077875;28;20048;-56
2022/03/20 10:07:43;;;;;;;27.20;15.05;;;;;;;9.94;48.61;102053.25;5075657;28;20151;-52
2022/03/20 10:10:19;;;;;;;23.77;14.30;;;;;;;10.10;46.11;102055.75;5076069;28;20080;-55
2022/03/20 10:12:53;;;;;;;22.60;13.85;;;;;;;10.34;44.87;102061.47;5077360;28;20049;-55
2022/03/20 10:15:36;;;;;;;21.65;14.65;;;;;;;10.41;45.76;102058.44;5078594;28;20063;-53
2022/03/20 10:18:11;;;;;;;19.23;13.57;;;;;;;10.33;42.59;102056.25;5075992;28;20059;-56
2022/03/20 10:20:46;;;;;;;21.52;12.95;;;;;;;10.28;41.91;102054.34;5077513;28;20056;-53
2022/03/20 10:23:36;;;;;;;29.85;13.73;;;;;;;10.24;42.06;102061.50;5075874;28;20052;-53
2022/03/20 10:26:11;;;;;;;23.42;13.70;;;;;;;10.37;41.32;102060.94;5077038;28;20052;-51
2022/03/20 10:28:46;;;;;;;27.73;13.68;;;;;;;10.40;41.62;102054.84;5069135;28;20419;-63
2022/03/20 10:31:17;;;;;;;31.45;13.73;;;;;;;10.66;41.62;102059.19;5075442;28;20064;-53
2022/03/20 10:34:02;;;;;;;27.15;13.32;;;;;;;10.71;41.30;102048.13;5073514;28;20115;-55
2022/03/20 10:36:32;;;;;;;23.15;13.10;;;;;;;10.88;40.69;102056.06;5065681;28;20056;-61
2022/03/20 10:39:00;;;;;;;21.10;12.57;;;;;;;10.84;39.76;102049.47;5075100;28;20048;-54
2022/03/20 10:41:34;;;;;;;20.30;12.15;;;;;;;10.73;39.90;102062.47;5076177;28;20044;-55
2022/03/20 10:44:26;;;;;;;19.60;12.95;;;;;;;10.68;39.34;102056.13;5067927;28;20056;-54
2022/03/20 10:47:13;;;;;;;19.10;10.68;;;;;;;10.86;39.00;102047.25;5075946;28;20052;-56
2022/03/20 10:49:45;;;;;;;20.20;11.13;;;;;;;10.94;38.19;102049.41;5092086;28;20056;-56
2022/03/20 10:52:19;;;;;;;16.92;10.27;;;;;;;10.73;38.51;102056.09;5058958;28;20063;-65
2022/03/20 10:54:55;;;;;;;19.48;10.43;;;;;;;10.82;38.21;102047.00;5076504;28;20052;-56
2022/03/20 10:57:32;;;;;;;17.35;11.02;;;;;;;10.76;38.41;102061.06;5075750;28;20055;-54
2022/03/20 11:00:10;;;;;;;19.00;11.27;;;;;;;11.03;39.08;102044.94;5076715;28;20045;-54
2022/03/20 11:02:40;;;;;;;19.60;8.77;;;;;;;11.01;37.28;102050.75;5076428;28;20053;-53
2022/03/20 11:05:08;;;;;;;17.50;9.23;;;;;;;11.14;35.98;102036.31;5083106;28;20063;-56
2022/03/20 11:07:36;;;;;;;16.63;9.32;;;;;;;11.12;35.24;102046.00;5087017;28;20048;-53
2022/03/20 11:10:13;;;;;;;14.52;8.48;;;;;;;11.35;35.26;102042.53;5066580;28;20546;-53
2022/03/20 11:12:42;;;;;;;13.88;8.30;;;;;;;10.68;35.92;102037.69;5076546;28;20071;-57
2022/03/20 11:15:10;;;;;;;13.35;7.78;;;;;;;10.87;35.42;102038.69;5075345;28;20460;-56
2022/03/20 11:17:45;;;;;;;16.90;7.30;;;;;;;11.09;34.51;102039.13;5073932;28;20487;-54
2022/03/20 11:20:15;;;;;;;12.95;7.70;;;;;;;11.33;34.27;102033.75;5075883;28;20045;-55
2022/03/20 11:22:48;;;;;;;13.32;7.90;;;;;;;11.37;34.42;102039.50;5068832;28;20401;-62
2022/03/20 11:25:21;;;;;;;15.27;8.15;;;;;;;11.56;34.80;102037.72;5076437;28;20059;-50
2022/03/20 11:27:55;;;;;;;14.50;9.00;;;;;;;11.62;34.63;102037.38;5065067;28;20059;-62
2022/03/20 11:30:27;;;;;;;15.93;8.85;;;;;;;11.83;34.71;102036.13;5067913;28;20056;-55
2022/03/20 11:33:00;;;;;;;17.33;9.07;;;;;;;11.72;34.66;102036.47;5072680;28;20048;-57
2022/03/20 11:35:33;;;;;;;14.90;8.43;;;;;;;11.67;34.60;102034.59;5054969;28;20048;-57
2022/03/20 11:38:14;;;;;;;14.38;8.05;;;;;;;11.59;33.87;102029.69;5074626;28;20060;-57
2022/03/20 11:41:05;;;;;;;15.13;8.02;;;;;;;11.71;33.80;102032.91;5070317;28;20048;-56
2022/03/20 11:43:34;;;;;;;13.25;7.63;;;;;;;11.61;33.40;102027.44;5069322;28;20056;-60
2022/03/20 11:46:19;;;;;;;13.18;7.32;;;;;;;11.96;33.29;102037.41;5073781;28;20060;-59
2022/03/20 11:49:15;;;;;;;13.35;8.13;;;;;;;11.94;32.99;102032.13;5074659;28;20059;-55
2022/03/20 11:52:20;;;;;;;14.82;8.05;;;;;;;11.66;33.96;102032.97;5070271;28;20056;-56
2022/03/20 11:54:48;;;;;;;14.15;8.98;;;;;;;11.91;33.44;102027.19;5026905;28;20096;-57
2022/03/20 11:57:36;;;;;;;15.68;9.30;;;;;;;11.61;34.08;102030.19;5031892;28;20436;-58
2022/03/20 12:00:14;;;;;;;18.00;8.80;;;;;;;11.80;34.56;102030.34;5046219;28;20069;-54
2022/03/20 12:02:50;;;;;;;15.57;9.10;;;;;;;11.79;34.57;102015.72;5074914;28;20423;-61
2022/03/20 12:05:21;;;;;;;18.63;10.00;;;;;;;11.89;34.56;102012.84;5068646;28;20049;-56
2022/03/20 12:08:08;;;;;;;18.55;10.63;;;;;;;12.10;34.30;102011.53;5075773;28;20051;-58
2022/03/20 12:11:05;;;;;;;16.15;9.80;;;;;;;12.41;34.15;102017.56;5075263;28;20048;-55
2022/03/20 12:14:03;;;;;;;18.40;9.52;;;;;;;12.21;33.76;102004.81;5071104;28;20045;-56